Main page
METAR-TAF:

METAR-TAF

Airports :

Valence, France

Valence-Chabeuil Airport

latitude: 44-54-58N, longitude: 4-58-06E, elevation: 160 m

Current weather observation

The report was made 6 hours and 3 minutes ago, at 18:00 UTC
Wind 8 kt from the North, varying between North/Northwest and Northeast
Temperature 12°C
Humidity 76%
Pressure 1021 hPa
Visibility 10 km or more
Few clouds at a height of 6000 ft
Overcast at a height of 7600 ft

METAR: LFLU 191800Z AUTO 01008KT 340V050 9999 FEW060 OVC076 12/08 Q1021

Time: 02:03 (00:03 UTC)


TAF: missing

Weather observations and forecasts of more than 4000 airports (METAR and TAF reports).

The available stations are represented by yellow and red dots on the map.

Hover mouse over dot to see the name of the station.

Then click to see weather observations and forecasts.

To change the map : click on the green buttons with a black cross to zoom in, on the green button with a dash to zoom out, or on the green arrows for adjacent maps.


METAR-TAF: